KAC107 OKKK-OEJN
Flight info
| Callsign | KAC107 |
|---|---|
| Flight time | 2h 3m |
| Altitude | 34000 |
| Route | DEKOB1K DEKOB P517 KSB B417 GAS G674 PMA B544 RBG/N0472F350 B544 NOMDA NOMDA1A |
| Aircraft | A320/M-SDE3FGHIRWY/LB1 |
Departure
| Time | 2026-04-27 21:35 |
|---|---|
| Airport | Kuwait International Airport (OKKK) |
Arrival
| Time | 2026-04-27 23:38 |
|---|---|
| Airport | King Abdulaziz International Airport (OEJN) |
| Time | Latitude | Longitude | Altitude | Speed | Heading |
|---|---|---|---|---|---|
| 2026-04-27 21:00 | 29.25211 | 47.95922 | 167 ft | 0 kts | 65° |
| 2026-04-27 21:15 | 29.25210 | 47.95920 | 167 ft | 2 kts | 65° |
| 2026-04-27 21:16 | 29.25199 | 47.95893 | 167 ft | 4 kts | 67° |
| 2026-04-27 21:16 | 29.25191 | 47.95865 | 166 ft | 4 kts | 84° |
| 2026-04-27 21:16 | 29.25194 | 47.95841 | 166 ft | 3 kts | 150° |
| 2026-04-27 21:16 | 29.25196 | 47.95840 | 166 ft | 0 kts | 155° |
| 2026-04-27 21:20 | 29.25192 | 47.95842 | 166 ft | 3 kts | 155° |
| 2026-04-27 21:20 | 29.25143 | 47.95861 | 166 ft | 12 kts | 174° |
| 2026-04-27 21:20 | 29.25042 | 47.95873 | 165 ft | 13 kts | 160° |
| 2026-04-27 21:20 | 29.24964 | 47.95915 | 165 ft | 12 kts | 154° |
| 2026-04-27 21:21 | 29.24898 | 47.95952 | 165 ft | 10 kts | 154° |
| 2026-04-27 21:21 | 29.24844 | 47.95982 | 165 ft | 8 kts | 154° |
| 2026-04-27 21:21 | 29.24801 | 47.96004 | 165 ft | 6 kts | 156° |
| 2026-04-27 21:21 | 29.24768 | 47.96020 | 165 ft | 5 kts | 156° |
| 2026-04-27 21:22 | 29.24730 | 47.96040 | 165 ft | 11 kts | 155° |
| 2026-04-27 21:22 | 29.24634 | 47.96091 | 165 ft | 18 kts | 155° |
| 2026-04-27 21:22 | 29.24500 | 47.96162 | 165 ft | 23 kts | 155° |
| 2026-04-27 21:22 | 29.24335 | 47.96250 | 165 ft | 28 kts | 155° |
| 2026-04-27 21:23 | 29.24165 | 47.96339 | 165 ft | 23 kts | 155° |
| 2026-04-27 21:23 | 29.24052 | 47.96401 | 165 ft | 18 kts | 155° |
| 2026-04-27 21:23 | 29.23934 | 47.96461 | 165 ft | 19 kts | 154° |
| 2026-04-27 21:23 | 29.23814 | 47.96527 | 166 ft | 19 kts | 154° |
| 2026-04-27 21:24 | 29.23690 | 47.96595 | 167 ft | 20 kts | 154° |
| 2026-04-27 21:24 | 29.23573 | 47.96657 | 172 ft | 18 kts | 155° |
| 2026-04-27 21:24 | 29.23466 | 47.96710 | 176 ft | 16 kts | 156° |
| 2026-04-27 21:24 | 29.23373 | 47.96759 | 178 ft | 14 kts | 155° |
| 2026-04-27 21:25 | 29.23284 | 47.96808 | 178 ft | 17 kts | 154° |
| 2026-04-27 21:25 | 29.23172 | 47.96847 | 177 ft | 16 kts | 200° |
| 2026-04-27 21:25 | 29.23122 | 47.96775 | 183 ft | 8 kts | 242° |
| 2026-04-27 21:25 | 29.23093 | 47.96707 | 192 ft | 13 kts | 245° |
| 2026-04-27 21:26 | 29.23046 | 47.96584 | 189 ft | 18 kts | 246° |
| 2026-04-27 21:26 | 29.22969 | 47.96467 | 169 ft | 20 kts | 193° |
| 2026-04-27 21:26 | 29.22874 | 47.96527 | 169 ft | 15 kts | 148° |
| 2026-04-27 21:26 | 29.22781 | 47.96580 | 169 ft | 15 kts | 156° |
| 2026-04-27 21:27 | 29.22690 | 47.96540 | 162 ft | 18 kts | 237° |
| 2026-04-27 21:27 | 29.22635 | 47.96409 | 160 ft | 18 kts | 244° |
| 2026-04-27 21:27 | 29.22579 | 47.96276 | 160 ft | 18 kts | 245° |
| 2026-04-27 21:27 | 29.22525 | 47.96143 | 160 ft | 18 kts | 245° |
| 2026-04-27 21:28 | 29.22473 | 47.96011 | 160 ft | 18 kts | 246° |
| 2026-04-27 21:28 | 29.22423 | 47.95881 | 160 ft | 18 kts | 246° |
| 2026-04-27 21:28 | 29.22371 | 47.95756 | 160 ft | 17 kts | 243° |
| 2026-04-27 21:28 | 29.22319 | 47.95635 | 160 ft | 18 kts | 245° |
| 2026-04-27 21:29 | 29.22258 | 47.95489 | 160 ft | 22 kts | 245° |
| 2026-04-27 21:29 | 29.22191 | 47.95327 | 160 ft | 24 kts | 245° |
| 2026-04-27 21:29 | 29.22129 | 47.95176 | 160 ft | 17 kts | 244° |
| 2026-04-27 21:29 | 29.22081 | 47.95060 | 161 ft | 15 kts | 246° |
| 2026-04-27 21:30 | 29.22082 | 47.94958 | 161 ft | 12 kts | 311° |
| 2026-04-27 21:30 | 29.22145 | 47.94916 | 161 ft | 10 kts | 338° |
| 2026-04-27 21:30 | 29.22209 | 47.94883 | 161 ft | 13 kts | 335° |
| 2026-04-27 21:30 | 29.22319 | 47.94825 | 161 ft | 21 kts | 335° |
| 2026-04-27 21:31 | 29.22460 | 47.94749 | 161 ft | 25 kts | 335° |
| 2026-04-27 21:31 | 29.22628 | 47.94660 | 161 ft | 28 kts | 335° |
| 2026-04-27 21:31 | 29.22800 | 47.94571 | 161 ft | 24 kts | 333° |
| 2026-04-27 21:31 | 29.22926 | 47.94501 | 161 ft | 14 kts | 328° |
| 2026-04-27 21:32 | 29.22949 | 47.94421 | 165 ft | 8 kts | 261° |
| 2026-04-27 21:32 | 29.22942 | 47.94397 | 167 ft | 2 kts | 249° |
| 2026-04-27 21:32 | 29.22931 | 47.94367 | 171 ft | 6 kts | 247° |
| 2026-04-27 21:32 | 29.22904 | 47.94313 | 178 ft | 10 kts | 236° |
| 2026-04-27 21:33 | 29.22832 | 47.94247 | 184 ft | 15 kts | 212° |
| 2026-04-27 21:33 | 29.22754 | 47.94231 | 187 ft | 5 kts | 161° |
| 2026-04-27 21:33 | 29.22744 | 47.94235 | 184 ft | 0 kts | 157° |
| 2026-04-27 21:34 | 29.22715 | 47.94249 | 184 ft | 27 kts | 156° |
| 2026-04-27 21:34 | 29.22313 | 47.94466 | 181 ft | 96 kts | 155° |
| 2026-04-27 21:34 | 29.21537 | 47.94882 | 195 ft | 148 kts | 155° |
| 2026-04-27 21:34 | 29.20487 | 47.95447 | 324 ft | 176 kts | 155° |
| 2026-04-27 21:35 | 29.19353 | 47.95974 | 951 ft | 178 kts | 155° |
| 2026-04-27 21:35 | 29.18201 | 47.96570 | 1457 ft | 185 kts | 153° |
| 2026-04-27 21:35 | 29.17016 | 47.97212 | 1957 ft | 192 kts | 152° |
| 2026-04-27 21:35 | 29.15740 | 47.97912 | 2185 ft | 215 kts | 152° |
| 2026-04-27 21:36 | 29.14315 | 47.98692 | 2462 ft | 239 kts | 152° |
| 2026-04-27 21:36 | 29.12755 | 47.99537 | 2947 ft | 253 kts | 154° |
| 2026-04-27 21:36 | 29.11161 | 48.00389 | 3785 ft | 254 kts | 156° |
| 2026-04-27 21:36 | 29.09550 | 48.01243 | 4529 ft | 257 kts | 158° |
| 2026-04-27 21:37 | 29.07904 | 48.02110 | 5134 ft | 265 kts | 159° |
| 2026-04-27 21:37 | 29.06233 | 48.02989 | 5775 ft | 271 kts | 160° |
| 2026-04-27 21:37 | 29.04429 | 48.03541 | 5985 ft | 266 kts | 179° |
| 2026-04-27 21:37 | 29.02585 | 48.03372 | 6582 ft | 266 kts | 190° |
| 2026-04-27 21:38 | 29.00742 | 48.03072 | 7327 ft | 268 kts | 189° |
| 2026-04-27 21:38 | 28.98880 | 48.02788 | 8030 ft | 271 kts | 189° |
| 2026-04-27 21:38 | 28.96996 | 48.02508 | 8699 ft | 274 kts | 189° |
| 2026-04-27 21:38 | 28.95087 | 48.02226 | 9339 ft | 278 kts | 189° |
| 2026-04-27 21:39 | 28.93165 | 48.01939 | 9867 ft | 280 kts | 190° |
| 2026-04-27 21:39 | 28.91213 | 48.01643 | 10010 ft | 286 kts | 190° |
| 2026-04-27 21:39 | 28.89189 | 48.01331 | 10030 ft | 310 kts | 190° |
| 2026-04-27 21:39 | 28.86962 | 48.00987 | 10027 ft | 335 kts | 190° |
| 2026-04-27 21:40 | 28.84574 | 48.00620 | 10026 ft | 354 kts | 190° |
| 2026-04-27 21:40 | 28.82106 | 48.00249 | 10029 ft | 359 kts | 190° |
| 2026-04-27 21:40 | 28.79612 | 47.99878 | 10275 ft | 363 kts | 190° |
| 2026-04-27 21:40 | 28.77100 | 47.99505 | 10902 ft | 365 kts | 190° |
| 2026-04-27 21:41 | 28.74578 | 47.99129 | 11497 ft | 367 kts | 191° |
| 2026-04-27 21:41 | 28.72033 | 47.98739 | 11918 ft | 369 kts | 193° |
| 2026-04-27 21:41 | 28.69576 | 47.97973 | 12005 ft | 363 kts | 205° |
| 2026-04-27 21:41 | 28.67368 | 47.96584 | 12440 ft | 363 kts | 217° |
| 2026-04-27 21:42 | 28.65292 | 47.94942 | 13075 ft | 364 kts | 217° |
| 2026-04-27 21:42 | 28.63185 | 47.93305 | 13669 ft | 367 kts | 217° |
| 2026-04-27 21:42 | 28.61057 | 47.91671 | 14222 ft | 370 kts | 216° |
| 2026-04-27 21:42 | 28.58919 | 47.90035 | 14759 ft | 373 kts | 217° |
| 2026-04-27 21:43 | 28.56757 | 47.88375 | 15282 ft | 376 kts | 217° |
| 2026-04-27 21:43 | 28.54586 | 47.86699 | 15777 ft | 379 kts | 217° |
| 2026-04-27 21:43 | 28.52477 | 47.84945 | 16255 ft | 380 kts | 223° |
| 2026-04-27 21:43 | 28.50577 | 47.82839 | 16741 ft | 382 kts | 227° |
| 2026-04-27 21:44 | 28.49312 | 47.81387 | 17057 ft | 383 kts | 227° |
| 2026-04-27 21:44 | 28.47422 | 47.79226 | 17519 ft | 386 kts | 227° |
| 2026-04-27 21:44 | 28.45539 | 47.77088 | 17972 ft | 389 kts | 226° |
| 2026-04-27 21:44 | 28.43619 | 47.74915 | 18436 ft | 391 kts | 226° |
| 2026-04-27 21:45 | 28.41688 | 47.72731 | 18880 ft | 393 kts | 226° |
| 2026-04-27 21:45 | 28.39071 | 47.69772 | 19461 ft | 396 kts | 226° |
| 2026-04-27 21:45 | 28.37776 | 47.68306 | 19727 ft | 397 kts | 226° |
| 2026-04-27 21:45 | 28.35813 | 47.66084 | 20147 ft | 399 kts | 226° |
| 2026-04-27 21:46 | 28.33834 | 47.63846 | 20465 ft | 403 kts | 226° |
| 2026-04-27 21:46 | 28.31843 | 47.61593 | 20876 ft | 404 kts | 227° |
| 2026-04-27 21:46 | 28.29875 | 47.59365 | 21261 ft | 405 kts | 227° |
| 2026-04-27 21:46 | 28.27873 | 47.57102 | 21630 ft | 407 kts | 227° |
| 2026-04-27 21:47 | 28.25861 | 47.54833 | 21976 ft | 409 kts | 227° |
| 2026-04-27 21:47 | 28.23834 | 47.52543 | 22302 ft | 411 kts | 227° |
| 2026-04-27 21:47 | 28.21987 | 47.50077 | 22620 ft | 411 kts | 236° |
| 2026-04-27 21:47 | 28.20567 | 47.47262 | 22940 ft | 412 kts | 246° |
| 2026-04-27 21:48 | 28.19630 | 47.44230 | 23238 ft | 414 kts | 255° |
| 2026-04-27 21:48 | 28.19086 | 47.41009 | 23555 ft | 416 kts | 258° |
| 2026-04-27 21:48 | 28.18571 | 47.37767 | 23834 ft | 419 kts | 258° |
| 2026-04-27 21:48 | 28.18048 | 47.34515 | 24124 ft | 420 kts | 258° |
| 2026-04-27 21:49 | 28.17518 | 47.31247 | 24411 ft | 422 kts | 258° |
| 2026-04-27 21:49 | 28.16983 | 47.27969 | 24694 ft | 423 kts | 258° |
| 2026-04-27 21:49 | 28.16445 | 47.24678 | 24976 ft | 424 kts | 258° |
| 2026-04-27 21:49 | 28.15908 | 47.21393 | 25252 ft | 425 kts | 258° |
| 2026-04-27 21:50 | 28.15367 | 47.18092 | 25528 ft | 426 kts | 258° |
| 2026-04-27 21:50 | 28.14832 | 47.14829 | 25796 ft | 427 kts | 258° |
| 2026-04-27 21:50 | 28.14282 | 47.11476 | 26074 ft | 428 kts | 258° |
| 2026-04-27 21:50 | 28.13737 | 47.08155 | 26337 ft | 429 kts | 257° |
| 2026-04-27 21:51 | 28.13189 | 47.04824 | 26597 ft | 430 kts | 257° |
| 2026-04-27 21:51 | 28.12648 | 47.01546 | 26968 ft | 428 kts | 257° |
| 2026-04-27 21:51 | 28.12099 | 46.98236 | 27340 ft | 426 kts | 257° |
| 2026-04-27 21:51 | 28.11555 | 46.94938 | 27721 ft | 424 kts | 257° |
| 2026-04-27 21:52 | 28.11018 | 46.91666 | 28130 ft | 421 kts | 257° |
| 2026-04-27 21:52 | 28.10486 | 46.88413 | 28524 ft | 419 kts | 257° |
| 2026-04-27 21:52 | 28.09955 | 46.85176 | 28892 ft | 417 kts | 257° |
| 2026-04-27 21:52 | 28.09425 | 46.81956 | 29271 ft | 414 kts | 257° |
| 2026-04-27 21:53 | 28.08893 | 46.78746 | 29668 ft | 412 kts | 257° |
| 2026-04-27 21:53 | 28.08371 | 46.75613 | 30043 ft | 409 kts | 257° |
| 2026-04-27 21:53 | 28.07844 | 46.72446 | 30413 ft | 407 kts | 256° |
| 2026-04-27 21:53 | 28.07319 | 46.69313 | 30779 ft | 405 kts | 257° |
| 2026-04-27 21:54 | 28.06796 | 46.66193 | 31125 ft | 403 kts | 256° |
| 2026-04-27 21:54 | 28.06276 | 46.63075 | 31470 ft | 401 kts | 257° |
| 2026-04-27 21:54 | 28.05762 | 46.59982 | 31817 ft | 399 kts | 257° |
| 2026-04-27 21:54 | 28.05245 | 46.56897 | 32150 ft | 397 kts | 257° |
| 2026-04-27 21:55 | 28.04731 | 46.53839 | 32488 ft | 394 kts | 257° |
| 2026-04-27 21:55 | 28.04220 | 46.50786 | 32788 ft | 393 kts | 257° |
| 2026-04-27 21:55 | 28.03711 | 46.47746 | 33093 ft | 392 kts | 257° |
| 2026-04-27 21:55 | 28.03212 | 46.44759 | 33401 ft | 390 kts | 257° |
| 2026-04-27 21:56 | 28.02701 | 46.41709 | 33700 ft | 388 kts | 257° |
| 2026-04-27 21:56 | 28.01695 | 46.35743 | 33814 ft | 388 kts | 257° |
| 2026-04-27 21:57 | 28.00674 | 46.29734 | 33814 ft | 388 kts | 257° |
| 2026-04-27 21:57 | 27.99661 | 46.23737 | 33813 ft | 388 kts | 257° |
| 2026-04-27 21:58 | 27.98644 | 46.17744 | 33813 ft | 387 kts | 257° |
| 2026-04-27 21:58 | 27.97640 | 46.11796 | 33813 ft | 387 kts | 257° |
| 2026-04-27 21:59 | 27.96639 | 46.05811 | 33813 ft | 387 kts | 257° |
| 2026-04-27 21:59 | 27.95635 | 45.99829 | 33813 ft | 387 kts | 257° |
| 2026-04-27 22:00 | 27.94614 | 45.93847 | 33814 ft | 387 kts | 257° |
| 2026-04-27 22:00 | 27.93596 | 45.87875 | 33813 ft | 387 kts | 257° |
| 2026-04-27 22:01 | 27.92587 | 45.81937 | 33814 ft | 387 kts | 257° |
| 2026-04-27 22:01 | 27.91573 | 45.75964 | 33815 ft | 387 kts | 257° |
| 2026-04-27 22:02 | 27.90540 | 45.69974 | 33815 ft | 387 kts | 257° |
| 2026-04-27 22:02 | 27.89505 | 45.63991 | 33821 ft | 388 kts | 257° |
| 2026-04-27 22:03 | 27.88310 | 45.58058 | 33819 ft | 386 kts | 249° |
| 2026-04-27 22:03 | 27.85508 | 45.52949 | 33813 ft | 390 kts | 229° |
| 2026-04-27 22:04 | 27.81514 | 45.48759 | 33806 ft | 392 kts | 227° |
| 2026-04-27 22:04 | 27.77496 | 45.44592 | 33803 ft | 393 kts | 227° |
| 2026-04-27 22:05 | 27.73473 | 45.40413 | 33803 ft | 393 kts | 227° |
| 2026-04-27 22:05 | 27.69441 | 45.36239 | 33808 ft | 393 kts | 227° |
| 2026-04-27 22:06 | 27.65408 | 45.32064 | 33812 ft | 393 kts | 227° |
| 2026-04-27 22:06 | 27.61402 | 45.27914 | 33812 ft | 393 kts | 227° |
| 2026-04-27 22:07 | 27.57343 | 45.23723 | 33812 ft | 393 kts | 227° |
| 2026-04-27 22:07 | 27.53423 | 45.19493 | 33813 ft | 392 kts | 230° |
| 2026-04-27 22:08 | 27.49658 | 45.15053 | 33813 ft | 392 kts | 231° |
| 2026-04-27 22:08 | 27.45904 | 45.10588 | 33815 ft | 392 kts | 230° |
| 2026-04-27 22:09 | 27.42110 | 45.06147 | 33817 ft | 393 kts | 230° |
| 2026-04-27 22:09 | 27.38322 | 45.01766 | 33817 ft | 393 kts | 230° |
| 2026-04-27 22:10 | 27.34505 | 44.97358 | 33819 ft | 393 kts | 230° |
| 2026-04-27 22:10 | 27.30688 | 44.92947 | 33825 ft | 393 kts | 230° |
| 2026-04-27 22:11 | 27.26870 | 44.88539 | 33824 ft | 393 kts | 230° |
| 2026-04-27 22:11 | 27.23052 | 44.84132 | 33831 ft | 393 kts | 230° |
| 2026-04-27 22:12 | 27.19244 | 44.79735 | 33834 ft | 393 kts | 230° |
| 2026-04-27 22:12 | 27.15421 | 44.75329 | 33833 ft | 393 kts | 230° |
| 2026-04-27 22:13 | 27.11619 | 44.70953 | 33835 ft | 393 kts | 230° |
| 2026-04-27 22:13 | 27.07786 | 44.66555 | 33828 ft | 393 kts | 230° |
| 2026-04-27 22:14 | 27.03984 | 44.62196 | 33824 ft | 393 kts | 230° |
| 2026-04-27 22:14 | 27.00160 | 44.57805 | 33821 ft | 393 kts | 230° |
| 2026-04-27 22:15 | 26.96340 | 44.53423 | 33819 ft | 393 kts | 230° |
| 2026-04-27 22:15 | 26.92505 | 44.49038 | 33821 ft | 393 kts | 230° |
| 2026-04-27 22:16 | 26.88673 | 44.44656 | 33825 ft | 394 kts | 230° |
| 2026-04-27 22:16 | 26.84878 | 44.40325 | 33833 ft | 394 kts | 230° |
| 2026-04-27 22:17 | 26.81028 | 44.35939 | 33831 ft | 395 kts | 230° |
| 2026-04-27 22:17 | 26.77172 | 44.31554 | 33832 ft | 395 kts | 230° |
| 2026-04-27 22:18 | 26.73314 | 44.27161 | 33834 ft | 395 kts | 230° |
| 2026-04-27 22:18 | 26.69456 | 44.22775 | 33837 ft | 396 kts | 230° |
| 2026-04-27 22:19 | 26.65583 | 44.18385 | 33834 ft | 396 kts | 230° |
| 2026-04-27 22:19 | 26.61711 | 44.14001 | 33836 ft | 396 kts | 230° |
| 2026-04-27 22:20 | 26.57866 | 44.09636 | 33835 ft | 397 kts | 230° |
| 2026-04-27 22:20 | 26.53994 | 44.05247 | 33833 ft | 396 kts | 230° |
| 2026-04-27 22:21 | 26.50116 | 44.00860 | 33835 ft | 397 kts | 230° |
| 2026-04-27 22:21 | 26.46235 | 43.96474 | 33835 ft | 397 kts | 230° |
| 2026-04-27 22:22 | 26.42342 | 43.92083 | 33834 ft | 397 kts | 230° |
| 2026-04-27 22:22 | 26.38446 | 43.87688 | 33837 ft | 398 kts | 230° |
| 2026-04-27 22:23 | 26.34575 | 43.83326 | 33840 ft | 398 kts | 230° |
| 2026-04-27 22:23 | 26.30725 | 43.78901 | 33841 ft | 395 kts | 235° |
| 2026-04-27 22:24 | 26.28037 | 43.73647 | 33843 ft | 390 kts | 247° |
| 2026-04-27 22:24 | 26.25785 | 43.68142 | 33844 ft | 390 kts | 246° |
| 2026-04-27 22:25 | 26.23522 | 43.62644 | 33846 ft | 390 kts | 246° |
| 2026-04-27 22:25 | 26.21272 | 43.57167 | 33846 ft | 390 kts | 247° |
| 2026-04-27 22:26 | 26.19013 | 43.51669 | 33846 ft | 390 kts | 246° |
| 2026-04-27 22:26 | 26.16743 | 43.46175 | 33846 ft | 390 kts | 246° |
| 2026-04-27 22:27 | 26.14475 | 43.40694 | 33844 ft | 390 kts | 246° |
| 2026-04-27 22:27 | 26.12206 | 43.35204 | 33844 ft | 390 kts | 246° |
| 2026-04-27 22:28 | 26.09953 | 43.29760 | 33845 ft | 390 kts | 246° |
| 2026-04-27 22:28 | 26.07683 | 43.24285 | 33846 ft | 390 kts | 246° |
| 2026-04-27 22:29 | 26.05790 | 43.19723 | 33848 ft | 389 kts | 246° |
| 2026-04-27 22:29 | 26.03515 | 43.14250 | 33850 ft | 390 kts | 246° |
| 2026-04-27 22:30 | 26.01239 | 43.08777 | 33855 ft | 390 kts | 246° |
| 2026-04-27 22:30 | 25.98965 | 43.03308 | 33855 ft | 390 kts | 246° |
| 2026-04-27 22:31 | 25.96696 | 42.97864 | 33849 ft | 391 kts | 246° |
| 2026-04-27 22:31 | 25.94405 | 42.92377 | 33850 ft | 391 kts | 246° |
| 2026-04-27 22:32 | 25.92116 | 42.86891 | 33852 ft | 391 kts | 246° |
| 2026-04-27 22:32 | 25.89826 | 42.81418 | 33854 ft | 391 kts | 246° |
| 2026-04-27 22:33 | 25.87525 | 42.75940 | 33859 ft | 392 kts | 246° |
| 2026-04-27 22:33 | 25.85222 | 42.70463 | 33864 ft | 392 kts | 246° |
| 2026-04-27 22:34 | 25.82921 | 42.64983 | 33867 ft | 392 kts | 246° |
| 2026-04-27 22:34 | 25.80609 | 42.59483 | 33873 ft | 392 kts | 245° |
| 2026-04-27 22:35 | 25.78300 | 42.54006 | 33875 ft | 392 kts | 245° |
| 2026-04-27 22:35 | 25.75983 | 42.48520 | 33878 ft | 392 kts | 245° |
| 2026-04-27 22:36 | 25.73681 | 42.43078 | 33888 ft | 392 kts | 245° |
| 2026-04-27 22:36 | 25.71365 | 42.37601 | 33892 ft | 391 kts | 245° |
| 2026-04-27 22:37 | 25.69050 | 42.32139 | 33893 ft | 391 kts | 245° |
| 2026-04-27 22:37 | 25.66736 | 42.26672 | 33897 ft | 391 kts | 245° |
| 2026-04-27 22:38 | 25.64430 | 42.21234 | 33902 ft | 391 kts | 245° |
| 2026-04-27 22:38 | 25.62107 | 42.15780 | 33900 ft | 391 kts | 245° |
| 2026-04-27 22:39 | 25.59777 | 42.10327 | 33903 ft | 391 kts | 245° |
| 2026-04-27 22:39 | 25.57450 | 42.04870 | 33906 ft | 391 kts | 245° |
| 2026-04-27 22:40 | 25.55132 | 41.99445 | 33908 ft | 392 kts | 245° |
| 2026-04-27 22:40 | 25.52800 | 41.93987 | 33907 ft | 391 kts | 245° |
| 2026-04-27 22:41 | 25.50467 | 41.88532 | 33913 ft | 391 kts | 245° |
| 2026-04-27 22:41 | 25.48134 | 41.83074 | 33908 ft | 391 kts | 245° |
| 2026-04-27 22:42 | 25.45811 | 41.77665 | 33913 ft | 391 kts | 245° |
| 2026-04-27 22:42 | 25.43478 | 41.72227 | 33906 ft | 391 kts | 245° |
| 2026-04-27 22:43 | 25.41134 | 41.66785 | 33906 ft | 392 kts | 245° |
| 2026-04-27 22:43 | 25.38792 | 41.61346 | 33911 ft | 392 kts | 245° |
| 2026-04-27 22:44 | 25.36449 | 41.55906 | 33921 ft | 392 kts | 245° |
| 2026-04-27 22:44 | 25.34092 | 41.50444 | 33929 ft | 393 kts | 245° |
| 2026-04-27 22:45 | 25.31731 | 41.44993 | 33937 ft | 393 kts | 245° |
| 2026-04-27 22:45 | 25.29389 | 41.39586 | 33944 ft | 393 kts | 245° |
| 2026-04-27 22:46 | 25.27023 | 41.34134 | 33936 ft | 393 kts | 245° |
| 2026-04-27 22:46 | 25.24656 | 41.28686 | 33951 ft | 394 kts | 245° |
| 2026-04-27 22:47 | 25.22285 | 41.23231 | 33949 ft | 394 kts | 245° |
| 2026-04-27 22:47 | 25.19931 | 41.17808 | 33938 ft | 394 kts | 245° |
| 2026-04-27 22:48 | 25.17565 | 41.12356 | 33946 ft | 394 kts | 245° |
| 2026-04-27 22:48 | 25.15184 | 41.06908 | 33945 ft | 394 kts | 245° |
| 2026-04-27 22:49 | 25.12806 | 41.01470 | 33945 ft | 394 kts | 245° |
| 2026-04-27 22:49 | 25.10419 | 40.96015 | 33944 ft | 394 kts | 245° |
| 2026-04-27 22:50 | 25.08041 | 40.90575 | 33937 ft | 394 kts | 245° |
| 2026-04-27 22:50 | 25.05657 | 40.85127 | 33938 ft | 394 kts | 245° |
| 2026-04-27 22:51 | 25.03284 | 40.79726 | 33944 ft | 394 kts | 245° |
| 2026-04-27 22:51 | 25.00889 | 40.74284 | 33948 ft | 394 kts | 245° |
| 2026-04-27 22:52 | 24.98502 | 40.68842 | 33950 ft | 394 kts | 245° |
| 2026-04-27 22:52 | 24.96107 | 40.63402 | 33940 ft | 394 kts | 245° |
| 2026-04-27 22:53 | 24.93703 | 40.57963 | 33937 ft | 394 kts | 246° |
| 2026-04-27 22:53 | 24.91319 | 40.52567 | 33935 ft | 394 kts | 245° |
| 2026-04-27 22:54 | 24.88906 | 40.47117 | 33948 ft | 395 kts | 245° |
| 2026-04-27 22:54 | 24.86498 | 40.41671 | 33952 ft | 395 kts | 245° |
| 2026-04-27 22:55 | 24.84092 | 40.36226 | 33957 ft | 395 kts | 245° |
| 2026-04-27 22:55 | 24.81675 | 40.30785 | 33954 ft | 396 kts | 246° |
| 2026-04-27 22:56 | 24.79267 | 40.25367 | 33950 ft | 396 kts | 246° |
| 2026-04-27 22:56 | 24.76838 | 40.19914 | 33947 ft | 396 kts | 245° |
| 2026-04-27 22:57 | 24.74413 | 40.14464 | 33946 ft | 397 kts | 246° |
| 2026-04-27 22:57 | 24.71982 | 40.09003 | 33942 ft | 397 kts | 245° |
| 2026-04-27 22:58 | 24.69548 | 40.03553 | 33950 ft | 397 kts | 246° |
| 2026-04-27 22:58 | 24.67126 | 39.98134 | 33949 ft | 398 kts | 246° |
| 2026-04-27 22:59 | 24.64684 | 39.92671 | 33943 ft | 398 kts | 246° |
| 2026-04-27 22:59 | 24.62236 | 39.87206 | 33950 ft | 398 kts | 246° |
| 2026-04-27 23:00 | 24.58560 | 39.79016 | 33953 ft | 398 kts | 246° |
| 2026-04-27 23:00 | 24.55929 | 39.73692 | 33939 ft | 402 kts | 236° |
| 2026-04-27 23:01 | 24.54010 | 39.71430 | 33937 ft | 409 kts | 225° |
| 2026-04-27 23:01 | 24.51642 | 39.69652 | 33935 ft | 419 kts | 214° |
| 2026-04-27 23:01 | 24.46052 | 39.67456 | 33933 ft | 429 kts | 205° |
| 2026-04-27 23:02 | 24.40357 | 39.65476 | 33930 ft | 430 kts | 206° |
| 2026-04-27 23:02 | 24.34654 | 39.63483 | 33928 ft | 431 kts | 206° |
| 2026-04-27 23:03 | 24.28937 | 39.61478 | 33933 ft | 431 kts | 206° |
| 2026-04-27 23:03 | 24.23217 | 39.59474 | 33936 ft | 432 kts | 206° |
| 2026-04-27 23:04 | 24.17527 | 39.57483 | 33944 ft | 432 kts | 206° |
| 2026-04-27 23:04 | 24.11795 | 39.55479 | 33937 ft | 432 kts | 205° |
| 2026-04-27 23:05 | 24.06063 | 39.53486 | 33936 ft | 432 kts | 206° |
| 2026-04-27 23:05 | 24.00337 | 39.51488 | 33948 ft | 432 kts | 206° |
| 2026-04-27 23:06 | 23.94603 | 39.49484 | 33927 ft | 433 kts | 205° |
| 2026-04-27 23:06 | 23.88893 | 39.47496 | 33918 ft | 433 kts | 205° |
| 2026-04-27 23:07 | 23.83139 | 39.45500 | 33918 ft | 434 kts | 205° |
| 2026-04-27 23:07 | 23.77381 | 39.43506 | 33914 ft | 434 kts | 205° |
| 2026-04-27 23:08 | 23.71621 | 39.41508 | 33918 ft | 434 kts | 205° |
| 2026-04-27 23:08 | 23.65868 | 39.39518 | 33919 ft | 434 kts | 205° |
| 2026-04-27 23:09 | 23.60098 | 39.37531 | 33914 ft | 434 kts | 205° |
| 2026-04-27 23:09 | 23.54363 | 39.35545 | 33907 ft | 435 kts | 205° |
| 2026-04-27 23:10 | 23.48584 | 39.33546 | 33907 ft | 436 kts | 205° |
| 2026-04-27 23:10 | 23.42800 | 39.31551 | 33904 ft | 436 kts | 205° |
| 2026-04-27 23:11 | 23.36995 | 39.29554 | 33904 ft | 437 kts | 205° |
| 2026-04-27 23:11 | 23.31200 | 39.27554 | 33902 ft | 437 kts | 205° |
| 2026-04-27 23:12 | 23.25430 | 39.25569 | 33900 ft | 437 kts | 205° |
| 2026-04-27 23:12 | 23.19632 | 39.23577 | 33903 ft | 438 kts | 205° |
| 2026-04-27 23:13 | 23.13803 | 39.21576 | 33899 ft | 438 kts | 205° |
| 2026-04-27 23:13 | 23.08009 | 39.19580 | 33900 ft | 439 kts | 205° |
| 2026-04-27 23:14 | 23.02176 | 39.17574 | 33902 ft | 439 kts | 205° |
| 2026-04-27 23:14 | 22.96342 | 39.15581 | 33905 ft | 439 kts | 205° |
| 2026-04-27 23:15 | 22.90506 | 39.13586 | 33898 ft | 440 kts | 205° |
| 2026-04-27 23:15 | 22.84664 | 39.11586 | 33878 ft | 440 kts | 205° |
| 2026-04-27 23:16 | 22.78743 | 39.09908 | 33864 ft | 451 kts | 194° |
| 2026-04-27 23:16 | 22.72370 | 39.09864 | 33853 ft | 461 kts | 186° |
| 2026-04-27 23:17 | 22.67030 | 39.10019 | 33849 ft | 461 kts | 186° |
| 2026-04-27 23:17 | 22.60614 | 39.10243 | 33842 ft | 462 kts | 186° |
| 2026-04-27 23:18 | 22.54169 | 39.10475 | 33842 ft | 462 kts | 186° |
| 2026-04-27 23:18 | 22.47742 | 39.10658 | 33845 ft | 461 kts | 187° |
| 2026-04-27 23:19 | 22.41318 | 39.10676 | 33846 ft | 460 kts | 188° |
| 2026-04-27 23:19 | 22.34959 | 39.10652 | 33846 ft | 461 kts | 188° |
| 2026-04-27 23:20 | 22.28526 | 39.10664 | 33846 ft | 462 kts | 187° |
| 2026-04-27 23:20 | 22.22101 | 39.10699 | 33846 ft | 462 kts | 187° |
| 2026-04-27 23:21 | 22.15678 | 39.10738 | 33846 ft | 454 kts | 187° |
| 2026-04-27 23:21 | 22.12570 | 39.10765 | 33745 ft | 439 kts | 187° |
| 2026-04-27 23:21 | 22.09596 | 39.10548 | 33449 ft | 420 kts | 198° |
| 2026-04-27 23:22 | 22.06871 | 39.09752 | 33054 ft | 404 kts | 207° |
| 2026-04-27 23:22 | 22.04247 | 39.08707 | 32588 ft | 399 kts | 207° |
| 2026-04-27 23:22 | 22.01652 | 39.07677 | 32130 ft | 395 kts | 207° |
| 2026-04-27 23:22 | 21.99080 | 39.06663 | 31656 ft | 391 kts | 207° |
| 2026-04-27 23:23 | 21.96531 | 39.05663 | 31149 ft | 389 kts | 207° |
| 2026-04-27 23:23 | 21.93994 | 39.04673 | 30666 ft | 386 kts | 207° |
| 2026-04-27 23:23 | 21.91477 | 39.03691 | 30215 ft | 382 kts | 207° |
| 2026-04-27 23:23 | 21.88994 | 39.02722 | 29672 ft | 376 kts | 207° |
| 2026-04-27 23:24 | 21.86553 | 39.01769 | 28905 ft | 370 kts | 207° |
| 2026-04-27 23:24 | 21.84143 | 39.00825 | 28107 ft | 365 kts | 206° |
| 2026-04-27 23:24 | 21.81750 | 38.99886 | 27131 ft | 365 kts | 206° |
| 2026-04-27 23:24 | 21.79379 | 38.98993 | 26184 ft | 367 kts | 200° |
| 2026-04-27 23:25 | 21.76793 | 38.98785 | 25178 ft | 383 kts | 179° |
| 2026-04-27 23:25 | 21.74191 | 38.99584 | 24147 ft | 392 kts | 168° |
| 2026-04-27 23:25 | 21.71627 | 39.00595 | 23104 ft | 392 kts | 167° |
| 2026-04-27 23:25 | 21.69086 | 39.01639 | 22066 ft | 391 kts | 166° |
| 2026-04-27 23:26 | 21.66544 | 39.02695 | 21024 ft | 389 kts | 166° |
| 2026-04-27 23:26 | 21.64019 | 39.03733 | 19985 ft | 387 kts | 166° |
| 2026-04-27 23:26 | 21.61503 | 39.04744 | 18951 ft | 385 kts | 166° |
| 2026-04-27 23:26 | 21.58994 | 39.05734 | 17936 ft | 383 kts | 166° |
| 2026-04-27 23:27 | 21.56525 | 39.06693 | 16940 ft | 381 kts | 166° |
| 2026-04-27 23:27 | 21.54014 | 39.07665 | 16346 ft | 378 kts | 165° |
| 2026-04-27 23:27 | 21.51575 | 39.08609 | 15845 ft | 376 kts | 165° |
| 2026-04-27 23:27 | 21.49097 | 39.09575 | 15336 ft | 374 kts | 164° |
| 2026-04-27 23:28 | 21.46682 | 39.10524 | 14827 ft | 372 kts | 164° |
| 2026-04-27 23:28 | 21.44251 | 39.11485 | 14325 ft | 370 kts | 163° |
| 2026-04-27 23:28 | 21.41844 | 39.12442 | 13819 ft | 368 kts | 163° |
| 2026-04-27 23:28 | 21.39459 | 39.13391 | 13330 ft | 365 kts | 163° |
| 2026-04-27 23:29 | 21.37077 | 39.14335 | 12870 ft | 361 kts | 163° |
| 2026-04-27 23:29 | 21.34742 | 39.15259 | 12514 ft | 354 kts | 162° |
| 2026-04-27 23:29 | 21.32440 | 39.16170 | 12052 ft | 351 kts | 162° |
| 2026-04-27 23:29 | 21.30157 | 39.17074 | 11548 ft | 349 kts | 162° |
| 2026-04-27 23:30 | 21.27883 | 39.17972 | 11052 ft | 346 kts | 162° |
| 2026-04-27 23:30 | 21.25724 | 39.19092 | 10545 ft | 347 kts | 144° |
| 2026-04-27 23:30 | 21.24192 | 39.21080 | 10039 ft | 350 kts | 116° |
| 2026-04-27 23:30 | 21.23677 | 39.23606 | 9589 ft | 350 kts | 88° |
| 2026-04-27 23:31 | 21.24255 | 39.26118 | 9112 ft | 348 kts | 64° |
| 2026-04-27 23:31 | 21.25718 | 39.28111 | 8576 ft | 345 kts | 36° |
| 2026-04-27 23:31 | 21.27861 | 39.29131 | 8207 ft | 336 kts | 7° |
| 2026-04-27 23:31 | 21.30137 | 39.28978 | 7829 ft | 326 kts | 343° |
| 2026-04-27 23:32 | 21.32283 | 39.28215 | 7399 ft | 322 kts | 337° |
| 2026-04-27 23:32 | 21.34338 | 39.27283 | 6940 ft | 320 kts | 334° |
| 2026-04-27 23:32 | 21.36366 | 39.26314 | 6473 ft | 319 kts | 335° |
| 2026-04-27 23:32 | 21.38396 | 39.25377 | 6030 ft | 316 kts | 336° |
| 2026-04-27 23:33 | 21.40420 | 39.24493 | 5610 ft | 312 kts | 337° |
| 2026-04-27 23:33 | 21.42432 | 39.23658 | 5184 ft | 306 kts | 338° |
| 2026-04-27 23:33 | 21.44378 | 39.22882 | 4767 ft | 290 kts | 339° |
| 2026-04-27 23:33 | 21.46241 | 39.22157 | 4319 ft | 277 kts | 339° |
| 2026-04-27 23:34 | 21.48008 | 39.21467 | 3955 ft | 263 kts | 339° |
| 2026-04-27 23:34 | 21.49660 | 39.20817 | 3617 ft | 250 kts | 339° |
| 2026-04-27 23:34 | 21.51251 | 39.20190 | 3294 ft | 237 kts | 339° |
| 2026-04-27 23:34 | 21.52793 | 39.19583 | 2985 ft | 236 kts | 339° |
| 2026-04-27 23:35 | 21.54318 | 39.18982 | 2673 ft | 228 kts | 339° |
| 2026-04-27 23:35 | 21.55770 | 39.18410 | 2369 ft | 217 kts | 340° |
| 2026-04-27 23:35 | 21.57153 | 39.17866 | 2090 ft | 207 kts | 340° |
| 2026-04-27 23:35 | 21.58475 | 39.17345 | 1839 ft | 196 kts | 340° |
| 2026-04-27 23:36 | 21.59715 | 39.16855 | 1581 ft | 183 kts | 340° |
| 2026-04-27 23:36 | 21.60865 | 39.16402 | 1337 ft | 170 kts | 340° |
| 2026-04-27 23:36 | 21.61938 | 39.15979 | 1113 ft | 159 kts | 340° |
| 2026-04-27 23:36 | 21.62954 | 39.15578 | 907 ft | 153 kts | 340° |
| 2026-04-27 23:37 | 21.63933 | 39.15192 | 724 ft | 146 kts | 340° |
| 2026-04-27 23:37 | 21.64866 | 39.14818 | 491 ft | 144 kts | 339° |
| 2026-04-27 23:37 | 21.65797 | 39.14441 | 311 ft | 142 kts | 341° |
| 2026-04-27 23:37 | 21.66728 | 39.14079 | 159 ft | 142 kts | 339° |
| 2026-04-27 23:38 | 21.67641 | 39.13717 | 36 ft | 131 kts | 340° |
| 2026-04-27 23:38 | 21.68357 | 39.13439 | 29 ft | 87 kts | 340° |
| 2026-04-27 23:38 | 21.68819 | 39.13261 | 27 ft | 56 kts | 340° |
| 2026-04-27 23:38 | 21.69068 | 39.13180 | 27 ft | 19 kts | 1° |
| 2026-04-27 23:39 | 21.69130 | 39.13193 | 26 ft | 8 kts | 12° |
| 2026-04-27 23:39 | 21.69179 | 39.13205 | 26 ft | 7 kts | 12° |
| 2026-04-27 23:39 | 21.69234 | 39.13215 | 26 ft | 13 kts | 8° |
| 2026-04-27 23:39 | 21.69273 | 39.13286 | 29 ft | 15 kts | 128° |
| 2026-04-27 23:40 | 21.69164 | 39.13342 | 27 ft | 20 kts | 159° |
| 2026-04-27 23:40 | 21.69014 | 39.13404 | 27 ft | 26 kts | 160° |
| 2026-04-27 23:40 | 21.68832 | 39.13474 | 28 ft | 30 kts | 159° |
| 2026-04-27 23:40 | 21.68620 | 39.13559 | 28 ft | 34 kts | 160° |
| 2026-04-27 23:41 | 21.68413 | 39.13644 | 30 ft | 32 kts | 160° |
| 2026-04-27 23:41 | 21.68343 | 39.13767 | 30 ft | 23 kts | 74° |
| 2026-04-27 23:41 | 21.68408 | 39.13946 | 30 ft | 28 kts | 67° |
| 2026-04-27 23:41 | 21.68486 | 39.14160 | 29 ft | 32 kts | 67° |
| 2026-04-27 23:42 | 21.68563 | 39.14394 | 27 ft | 35 kts | 72° |
| 2026-04-27 23:42 | 21.68646 | 39.14645 | 26 ft | 37 kts | 69° |
| 2026-04-27 23:42 | 21.68739 | 39.14914 | 25 ft | 37 kts | 73° |
| 2026-04-27 23:42 | 21.68823 | 39.15175 | 24 ft | 39 kts | 71° |
| 2026-04-27 23:43 | 21.68907 | 39.15423 | 25 ft | 34 kts | 71° |
| 2026-04-27 23:43 | 21.68919 | 39.15570 | 26 ft | 20 kts | 134° |
| 2026-04-27 23:43 | 21.68875 | 39.15690 | 26 ft | 18 kts | 104° |
| 2026-04-27 23:43 | 21.68793 | 39.15735 | 27 ft | 15 kts | 161° |
| 2026-04-27 23:44 | 21.68679 | 39.15782 | 28 ft | 20 kts | 159° |
| 2026-04-27 23:44 | 21.68527 | 39.15840 | 29 ft | 26 kts | 160° |
| 2026-04-27 23:44 | 21.68343 | 39.15913 | 27 ft | 31 kts | 159° |
| 2026-04-27 23:44 | 21.67145 | 39.16572 | 34 ft | 0 kts | 193° |